Time;durP1;ratioP1;P1;durP2;ratioP2;P2;SDS_P1;SDS_P2;PMS_P1;PMS_P2;Temp;Humidity;BMP_temperature;BMP_pressure;BME280_temperature;BME280_humidity;BME280_pressure;Samples;Min_cycle;Max_cycle;Signal;HPM_P1;HPM_P2
2024/01/15 00:00:37;;;;;;;28.60;10.57;;;;;;;-11.69;86.66;98179.09;10523196;28;20051;-66
2024/01/15 00:05:41;;;;;;;27.65;11.70;;;;;;;-11.71;86.94;98175.84;10520545;28;20036;-66
2024/01/15 00:10:44;;;;;;;28.38;10.93;;;;;;;-11.67;86.60;98161.19;10506773;28;20051;-66
2024/01/15 00:15:47;;;;;;;31.45;11.95;;;;;;;-11.68;86.72;98162.22;10521477;28;20041;-65
2024/01/15 00:20:49;;;;;;;29.10;11.52;;;;;;;-11.71;86.82;98162.63;10526494;28;20024;-65
2024/01/15 00:25:52;;;;;;;26.85;11.80;;;;;;;-11.77;86.80;98158.13;10521924;28;20040;-66
2024/01/15 00:30:54;;;;;;;26.75;11.63;;;;;;;-11.73;87.54;98146.94;10546052;28;20401;-66
2024/01/15 00:35:57;;;;;;;28.58;11.80;;;;;;;-11.65;87.69;98133.53;10540342;28;20047;-66
2024/01/15 00:41:00;;;;;;;29.83;10.68;;;;;;;-11.71;87.07;98142.28;10530374;28;20039;-65
2024/01/15 00:46:03;;;;;;;27.17;10.82;;;;;;;-11.56;87.51;98142.09;10506964;28;20037;-65
2024/01/15 00:51:06;;;;;;;26.05;10.02;;;;;;;-11.53;87.09;98132.94;10527136;28;20147;-65
2024/01/15 00:56:08;;;;;;;26.60;10.68;;;;;;;-11.51;86.87;98131.72;10540074;28;20066;-65
2024/01/15 01:01:12;;;;;;;29.33;12.45;;;;;;;-11.51;86.92;98134.38;10533824;28;20041;-65
2024/01/15 01:06:16;;;;;;;28.52;11.25;;;;;;;-11.55;86.84;98117.28;10511216;28;20044;-65
2024/01/15 01:11:20;;;;;;;34.15;11.93;;;;;;;-11.66;86.39;98115.22;10536707;28;20434;-65
2024/01/15 01:16:22;;;;;;;33.08;12.02;;;;;;;-11.68;87.75;98109.31;10530108;28;20047;-65
2024/01/15 01:21:25;;;;;;;34.35;14.40;;;;;;;-11.71;87.24;98096.50;10528452;28;20421;-65
2024/01/15 01:26:28;;;;;;;33.10;12.50;;;;;;;-11.58;88.04;98096.53;10511340;28;20075;-65
2024/01/15 01:31:31;;;;;;;41.58;14.52;;;;;;;-11.61;88.06;98081.06;10563613;28;20032;-65
2024/01/15 01:36:34;;;;;;;34.47;13.73;;;;;;;-11.55;87.44;98093.47;10561134;28;20047;-66
2024/01/15 01:41:39;;;;;;;35.45;12.50;;;;;;;-11.55;87.25;98090.81;10526473;28;20419;-66
2024/01/15 01:46:41;;;;;;;32.92;13.25;;;;;;;-11.53;87.80;98083.50;10507865;28;20067;-65
2024/01/15 01:51:44;;;;;;;28.00;11.38;;;;;;;-11.42;87.81;98074.94;10471673;28;20083;-64
2024/01/15 01:56:47;;;;;;;34.08;13.85;;;;;;;-11.40;87.90;98078.22;10512138;28;20032;-65
2024/01/15 02:01:54;;;;;;;31.52;11.55;;;;;;;-11.57;88.31;98077.78;10516257;28;20043;-65
2024/01/15 02:06:56;;;;;;;31.63;12.35;;;;;;;-11.56;88.42;98082.06;10529953;28;20047;-65
2024/01/15 02:12:02;;;;;;;33.55;11.90;;;;;;;-11.45;88.93;98079.81;10544142;28;20048;-65
2024/01/15 02:17:05;;;;;;;23.45;11.07;;;;;;;-11.52;88.47;98077.19;10543970;28;20044;-65
2024/01/15 02:22:08;;;;;;;31.05;12.60;;;;;;;-11.60;88.22;98074.75;10532284;28;20500;-66
2024/01/15 02:27:11;;;;;;;27.55;11.82;;;;;;;-11.50;88.39;98080.44;10525631;28;20047;-66
2024/01/15 02:32:16;;;;;;;23.27;10.70;;;;;;;-11.57;88.30;98071.69;10525551;28;20516;-66
2024/01/15 02:37:18;;;;;;;28.23;11.05;;;;;;;-11.49;88.70;98060.88;10543500;28;20392;-65
2024/01/15 02:42:20;;;;;;;26.08;10.18;;;;;;;-11.49;89.39;98063.53;10541370;28;20035;-65
2024/01/15 02:47:22;;;;;;;31.27;12.00;;;;;;;-11.53;88.99;98064.16;10533401;28;20051;-64
2024/01/15 02:52:25;;;;;;;34.67;11.82;;;;;;;-11.50;88.57;98050.50;10521404;28;20040;-65
2024/01/15 02:57:27;;;;;;;24.00;10.82;;;;;;;-11.47;89.14;98056.22;10522528;28;20040;-66
2024/01/15 03:02:31;;;;;;;30.73;12.50;;;;;;;-11.44;88.77;98050.53;10528752;28;20043;-65
2024/01/15 03:07:33;;;;;;;28.42;11.40;;;;;;;-11.47;88.93;98044.81;10513205;28;20044;-65
2024/01/15 03:12:36;;;;;;;24.58;10.90;;;;;;;-11.43;88.98;98033.63;10529383;28;20043;-66
2024/01/15 03:17:38;;;;;;;24.98;8.95;;;;;;;-11.43;88.33;98036.28;10535446;28;20040;-65
2024/01/15 03:22:40;;;;;;;32.50;11.75;;;;;;;-11.41;88.86;98038.72;10532325;28;20032;-66
2024/01/15 03:27:43;;;;;;;31.05;12.10;;;;;;;-11.45;88.67;98026.91;10527637;28;20045;-65
2024/01/15 03:32:47;;;;;;;28.95;12.18;;;;;;;-11.44;89.33;98029.38;10534996;28;20040;-65
2024/01/15 03:37:50;;;;;;;21.70;8.32;;;;;;;-11.38;89.02;98027.72;10543041;28;20386;-64
2024/01/15 03:42:53;;;;;;;22.38;7.63;;;;;;;-11.38;88.49;98019.78;10505869;28;20040;-64
2024/01/15 03:47:56;;;;;;;14.85;6.50;;;;;;;-11.37;88.80;98014.28;10512826;28;20048;-64
2024/01/15 03:52:59;;;;;;;11.15;6.05;;;;;;;-11.37;88.75;98006.34;10514341;28;20036;-64
2024/01/15 03:58:01;;;;;;;17.65;8.43;;;;;;;-11.38;89.04;98002.06;10536503;28;20405;-65
2024/01/15 04:03:03;;;;;;;14.40;6.20;;;;;;;-11.33;89.30;98002.25;10523618;28;20035;-65
2024/01/15 04:08:07;;;;;;;8.73;5.38;;;;;;;-11.24;89.16;98002.88;10511036;28;20505;-65
2024/01/15 04:13:09;;;;;;;21.02;7.10;;;;;;;-11.22;88.70;98002.66;10530684;28;20039;-65
2024/01/15 04:18:12;;;;;;;15.68;6.57;;;;;;;-11.28;89.48;98001.63;10534337;28;20044;-64
2024/01/15 04:23:16;;;;;;;14.65;8.38;;;;;;;-11.33;89.16;97994.31;10534552;28;20029;-64
2024/01/15 04:28:18;;;;;;;25.45;9.48;;;;;;;-11.28;89.30;97985.75;10529624;28;20051;-65
2024/01/15 04:33:21;;;;;;;18.15;8.80;;;;;;;-11.24;89.24;97991.47;10529870;28;20076;-64
2024/01/15 04:38:23;;;;;;;15.20;6.80;;;;;;;-11.20;88.63;97976.78;10523509;28;20669;-64
2024/01/15 04:43:25;;;;;;;22.92;7.82;;;;;;;-11.19;89.64;97970.47;10523070;28;20032;-66
2024/01/15 04:48:28;;;;;;;20.75;8.43;;;;;;;-11.14;89.08;97981.25;10526177;28;20049;-63
2024/01/15 04:53:30;;;;;;;7.85;4.40;;;;;;;-11.22;88.79;97978.84;10527980;28;20033;-64
2024/01/15 04:58:33;;;;;;;13.88;8.10;;;;;;;-11.14;89.26;97976.75;10527077;28;20415;-64
2024/01/15 05:03:36;;;;;;;14.38;5.93;;;;;;;-11.15;88.98;97975.16;10527193;28;20039;-63
2024/01/15 05:08:39;;;;;;;17.95;8.48;;;;;;;-11.12;89.23;97974.72;10525295;28;20040;-64
2024/01/15 05:13:41;;;;;;;12.30;7.70;;;;;;;-11.10;88.81;97977.19;10525640;28;20032;-63
2024/01/15 05:18:44;;;;;;;23.20;8.60;;;;;;;-11.05;89.16;97974.72;10526220;28;20036;-63
2024/01/15 05:23:47;;;;;;;15.18;7.93;;;;;;;-10.91;89.30;97971.00;10521507;28;20032;-65
2024/01/15 05:28:49;;;;;;;16.38;8.68;;;;;;;-10.81;88.68;97967.91;10524200;28;20045;-64
2024/01/15 05:33:51;;;;;;;13.27;6.88;;;;;;;-10.88;88.95;97959.19;10525155;28;20039;-64
2024/01/15 05:38:54;;;;;;;14.90;5.70;;;;;;;-10.83;88.51;97954.88;10524436;28;20036;-65
2024/01/15 05:43:58;;;;;;;9.40;5.57;;;;;;;-10.76;88.09;97963.63;10507669;28;20036;-65
2024/01/15 05:49:02;;;;;;;16.75;6.93;;;;;;;-10.63;88.85;97967.22;10523518;28;20550;-64
2024/01/15 05:54:04;;;;;;;11.48;6.05;;;;;;;-10.70;87.86;97972.56;10524774;28;20515;-64
2024/01/15 05:59:08;;;;;;;23.40;8.68;;;;;;;-10.71;88.03;97961.13;10524131;28;20036;-65
2024/01/15 06:04:11;;;;;;;19.30;7.68;;;;;;;-10.64;87.82;97974.34;10521610;28;20064;-65
2024/01/15 06:09:14;;;;;;;22.42;7.72;;;;;;;-10.77;88.56;97967.25;10525023;28;20519;-65
2024/01/15 06:14:16;;;;;;;18.52;8.38;;;;;;;-10.76;88.49;97968.06;10521633;28;20036;-65
2024/01/15 06:19:20;;;;;;;22.92;8.43;;;;;;;-10.82;88.63;97977.69;10507108;28;20044;-65
2024/01/15 06:24:23;;;;;;;9.88;6.18;;;;;;;-10.90;88.75;97977.94;10523022;28;20447;-64
2024/01/15 06:29:27;;;;;;;10.38;5.75;;;;;;;-10.86;88.70;97975.66;10523599;28;20032;-64
2024/01/15 06:34:29;;;;;;;11.65;6.78;;;;;;;-10.79;88.79;97979.09;10523311;28;20029;-65
2024/01/15 06:39:32;;;;;;;10.25;6.15;;;;;;;-10.77;89.06;97972.56;10523034;28;20043;-65
2024/01/15 06:44:34;;;;;;;14.60;6.60;;;;;;;-10.84;88.36;97987.69;10505964;28;20039;-64
2024/01/15 06:49:36;;;;;;;11.45;6.05;;;;;;;-10.85;88.76;97980.75;10521680;28;20098;-64
2024/01/15 06:54:39;;;;;;;6.40;3.88;;;;;;;-10.95;88.93;97981.19;10508450;28;20039;-64
2024/01/15 06:59:41;;;;;;;11.82;5.63;;;;;;;-10.93;89.09;97975.72;10489505;28;20037;-66
2024/01/15 07:04:44;;;;;;;10.65;5.15;;;;;;;-10.89;89.49;97984.84;10520100;28;20037;-65
2024/01/15 07:09:47;;;;;;;6.85;4.78;;;;;;;-10.87;88.82;97966.09;10522684;28;20047;-65
2024/01/15 07:14:49;;;;;;;10.82;6.60;;;;;;;-10.85;89.29;97964.06;10523526;28;20051;-65
2024/01/15 07:19:52;;;;;;;8.23;5.60;;;;;;;-10.85;89.09;97970.16;10487336;28;20040;-65
2024/01/15 07:24:56;;;;;;;12.60;7.70;;;;;;;-10.79;89.86;97968.50;10520443;28;20047;-65
2024/01/15 07:29:58;;;;;;;17.52;7.28;;;;;;;-10.82;89.70;97969.75;10526409;28;20041;-65
2024/01/15 07:35:01;;;;;;;12.75;6.25;;;;;;;-10.81;88.87;97965.25;10507855;28;20032;-65
2024/01/15 07:40:08;;;;;;;13.55;6.63;;;;;;;-10.81;88.89;97971.38;10504402;28;20569;-65
2024/01/15 07:45:11;;;;;;;19.52;8.40;;;;;;;-10.85;89.15;97962.22;10508870;28;20456;-65
2024/01/15 07:50:13;;;;;;;11.73;6.88;;;;;;;-10.70;89.59;97967.25;10524881;28;20052;-64
2024/01/15 07:55:15;;;;;;;12.00;6.65;;;;;;;-10.75;88.99;97969.72;10529029;28;20040;-65
2024/01/15 08:00:18;;;;;;;10.45;5.32;;;;;;;-10.77;88.87;97961.97;10528458;28;20040;-65
2024/01/15 08:05:20;;;;;;;4.35;2.60;;;;;;;-10.70;89.04;97957.47;10530580;28;20049;-65
2024/01/15 08:10:23;;;;;;;7.78;4.72;;;;;;;-10.69;89.23;97964.38;10528694;28;20512;-65
2024/01/15 08:15:26;;;;;;;8.95;5.85;;;;;;;-10.78;88.99;97965.63;10507048;28;20402;-65
2024/01/15 08:20:28;;;;;;;7.57;5.45;;;;;;;-10.69;88.28;97961.75;10489823;28;20037;-65
2024/01/15 08:25:30;;;;;;;18.23;7.78;;;;;;;-10.70;88.97;97961.94;10523949;28;20423;-64
2024/01/15 08:30:33;;;;;;;13.73;7.35;;;;;;;-10.57;89.06;97961.09;10531157;28;20037;-64
2024/01/15 08:35:35;;;;;;;16.40;7.00;;;;;;;-10.60;88.83;97962.28;10473267;28;20822;-65
2024/01/15 08:40:37;;;;;;;15.32;7.07;;;;;;;-10.48;88.09;97954.50;10471337;28;20044;-65
2024/01/15 08:45:40;;;;;;;10.80;4.75;;;;;;;-10.51;88.23;97960.22;10528073;28;20047;-65
2024/01/15 08:50:47;;;;;;;13.30;5.95;;;;;;;-10.54;87.88;97958.81;10528661;28;20060;-65
2024/01/15 08:55:49;;;;;;;6.95;3.28;;;;;;;-10.65;88.28;97952.34;10528474;28;20036;-65
2024/01/15 09:00:53;;;;;;;12.45;6.70;;;;;;;-10.58;87.88;97947.03;10528056;28;20041;-64
2024/01/15 09:05:56;;;;;;;11.75;5.57;;;;;;;-10.53;87.27;97954.31;10529893;28;20043;-65
2024/01/15 09:10:58;;;;;;;17.77;7.60;;;;;;;-10.49;87.98;97939.63;10526992;28;20041;-65
2024/01/15 09:16:00;;;;;;;10.95;6.30;;;;;;;-10.46;87.42;97941.84;10528800;28;20037;-65
2024/01/15 09:21:05;;;;;;;14.30;7.60;;;;;;;-10.49;87.75;97944.91;10527270;28;20474;-65
2024/01/15 09:26:09;;;;;;;12.00;6.15;;;;;;;-10.47;87.42;97940.22;10508797;28;20060;-65
2024/01/15 09:31:11;;;;;;;12.75;6.43;;;;;;;-10.41;87.71;97950.81;10521332;28;20039;-65
2024/01/15 09:36:13;;;;;;;8.68;4.80;;;;;;;-10.35;87.77;97939.34;10521645;28;20036;-65
2024/01/15 09:41:16;;;;;;;12.18;6.47;;;;;;;-10.35;87.67;97943.81;10526095;28;20063;-65
2024/01/15 09:46:18;;;;;;;12.35;6.45;;;;;;;-10.30;88.09;97941.34;10523277;28;20044;-66
2024/01/15 09:51:21;;;;;;;16.73;7.07;;;;;;;-10.30;87.87;97933.38;10483361;28;20037;-65
2024/01/15 09:56:24;;;;;;;9.77;5.65;;;;;;;-10.42;87.75;97935.88;10482592;28;20037;-65
2024/01/15 10:01:27;;;;;;;18.80;8.80;;;;;;;-10.48;87.98;97939.41;10457687;28;20044;-64
2024/01/15 10:06:30;;;;;;;12.68;6.15;;;;;;;-10.37;87.22;97928.13;10449669;28;20060;-66
2024/01/15 10:11:33;;;;;;;18.65;6.70;;;;;;;-10.31;87.64;97945.00;10434002;28;20052;-64
2024/01/15 10:16:37;;;;;;;16.17;6.70;;;;;;;-10.40;87.32;97935.72;10432371;28;20033;-66
2024/01/15 10:21:39;;;;;;;14.15;7.03;;;;;;;-10.36;87.71;97935.06;10481038;28;20052;-66
2024/01/15 10:26:41;;;;;;;11.60;7.30;;;;;;;-10.35;87.84;97933.22;10461974;28;20040;-65
2024/01/15 10:31:44;;;;;;;10.25;6.03;;;;;;;-10.23;87.49;97926.22;10476965;28;20416;-65
2024/01/15 10:36:47;;;;;;;15.85;7.72;;;;;;;-10.20;87.76;97936.34;10479413;28;20036;-67
2024/01/15 10:41:51;;;;;;;12.27;4.72;;;;;;;-10.32;88.24;97922.19;10480518;28;20039;-65
2024/01/15 10:46:54;;;;;;;20.10;6.15;;;;;;;-10.24;87.79;97926.41;10467149;28;20063;-66
2024/01/15 10:51:57;;;;;;;15.57;7.82;;;;;;;-10.20;87.78;97923.09;10525407;28;20031;-65
2024/01/15 10:56:59;;;;;;;17.85;7.30;;;;;;;-10.35;87.46;97906.72;10491644;28;20585;-66
2024/01/15 11:02:04;;;;;;;18.95;9.02;;;;;;;-10.36;88.09;97921.00;10482507;28;20056;-65
2024/01/15 11:07:07;;;;;;;14.95;5.25;;;;;;;-10.39;87.88;97908.19;10506849;28;20042;-66
2024/01/15 11:12:11;;;;;;;18.40;8.45;;;;;;;-10.28;88.84;97907.47;10521526;28;20032;-65
2024/01/15 11:17:14;;;;;;;15.18;7.13;;;;;;;-10.21;87.71;97905.59;10504389;28;20036;-65
2024/01/15 11:22:29;;;;;;;11.88;4.47;;;;;;;-10.24;87.59;97903.34;10519169;28;20044;-66
2024/01/15 11:27:41;;;;;;;18.30;6.88;;;;;;;-10.23;87.63;97905.00;10512047;28;20405;-65
2024/01/15 11:32:44;;;;;;;13.38;6.10;;;;;;;-10.25;87.64;97904.38;10515158;28;20037;-66
2024/01/15 11:37:56;;;;;;;10.70;5.22;;;;;;;-10.35;87.64;97896.91;10513870;28;20203;-67
2024/01/15 11:42:59;;;;;;;2.03;1.88;;;;;;;-10.32;88.74;97898.31;10497759;28;20041;-66
2024/01/15 11:48:14;;;;;;;4.30;3.38;;;;;;;-10.29;88.62;97895.25;10514473;28;20052;-64
2024/01/15 11:53:24;;;;;;;3.80;3.30;;;;;;;-10.28;88.45;97894.22;10517632;28;20039;-65
2024/01/15 11:58:27;;;;;;;21.75;8.18;;;;;;;-10.24;89.18;97890.09;10501135;28;20048;-65
2024/01/15 12:03:32;;;;;;;19.23;6.55;;;;;;;-10.18;88.71;97883.91;10503088;28;20048;-63
2024/01/15 12:08:35;;;;;;;12.48;6.68;;;;;;;-10.18;88.80;97883.91;10509565;28;20040;-63
2024/01/15 12:13:37;;;;;;;7.70;4.88;;;;;;;-10.20;89.17;97888.63;10509291;28;20043;-64
2024/01/15 12:18:40;;;;;;;18.45;7.57;;;;;;;-10.24;88.66;97891.94;10515147;28;20048;-63
2024/01/15 12:23:46;;;;;;;18.15;7.80;;;;;;;-10.32;89.01;97877.13;10519385;28;20073;-65
2024/01/15 12:28:51;;;;;;;10.25;5.75;;;;;;;-10.22;89.08;97877.47;10507769;28;20500;-66
2024/01/15 12:33:56;;;;;;;7.28;4.60;;;;;;;-10.27;89.03;97871.97;10489738;28;20033;-65
2024/01/15 12:39:00;;;;;;;15.38;6.80;;;;;;;-10.31;88.72;97875.28;10518373;28;20036;-65
2024/01/15 12:44:03;;;;;;;7.93;5.47;;;;;;;-10.32;88.68;97873.66;10526627;28;20102;-65
2024/01/15 12:49:05;;;;;;;18.65;7.32;;;;;;;-10.32;88.96;97863.88;10527811;28;20055;-63
2024/01/15 12:54:08;;;;;;;14.10;6.40;;;;;;;-10.36;88.95;97862.69;10522961;28;20030;-62
2024/01/15 12:59:10;;;;;;;9.02;5.03;;;;;;;-10.44;88.85;97871.69;10523655;28;20032;-65
2024/01/15 13:04:23;;;;;;;10.57;5.05;;;;;;;-10.36;89.46;97863.50;10514189;28;20094;-64
2024/01/15 13:09:25;;;;;;;14.38;5.82;;;;;;;-10.35;89.04;97872.25;10518984;28;20052;-63
2024/01/15 13:14:28;;;;;;;5.63;3.90;;;;;;;-10.42;88.94;97866.16;10518871;28;20040;-64
2024/01/15 13:19:30;;;;;;;11.45;6.38;;;;;;;-10.36;88.73;97881.25;10521515;28;20086;-63
2024/01/15 13:24:32;;;;;;;7.40;4.82;;;;;;;-10.41;89.00;97867.81;10496556;28;20029;-63
2024/01/15 13:29:35;;;;;;;10.75;5.63;;;;;;;-10.44;88.97;97871.69;10510460;28;20033;-63
2024/01/15 13:34:37;;;;;;;16.23;7.18;;;;;;;-10.41;88.50;97854.56;10518182;28;20032;-63
2024/01/15 13:39:39;;;;;;;13.38;6.57;;;;;;;-10.43;89.08;97868.00;10520756;28;20454;-63
2024/01/15 13:44:42;;;;;;;10.55;5.22;;;;;;;-10.44;88.46;97861.09;10523900;28;20028;-64
2024/01/15 13:49:44;;;;;;;7.15;3.65;;;;;;;-10.41;89.06;97859.88;10499824;28;20048;-63
2024/01/15 13:54:46;;;;;;;7.10;4.22;;;;;;;-10.41;88.75;97854.56;10517771;28;20416;-63
2024/01/15 13:59:49;;;;;;;14.77;5.68;;;;;;;-10.45;88.56;97851.53;10528238;28;20028;-63
2024/01/15 14:04:51;;;;;;;9.75;4.32;;;;;;;-10.47;89.35;97856.22;10525806;28;20067;-63
2024/01/15 14:09:54;;;;;;;13.05;5.40;;;;;;;-10.51;89.39;97859.53;10528155;28;20033;-63
2024/01/15 14:14:56;;;;;;;8.85;2.85;;;;;;;-10.52;89.11;97860.56;10507973;28;20033;-63
2024/01/15 14:19:58;;;;;;;12.43;6.38;;;;;;;-10.51;88.92;97867.47;10506841;28;20036;-63
2024/01/15 14:25:01;;;;;;;15.73;6.22;;;;;;;-10.56;89.32;97867.31;10523739;28;20036;-64
2024/01/15 14:30:05;;;;;;;13.48;4.80;;;;;;;-10.56;88.70;97872.63;10523910;28;20048;-65
2024/01/15 14:35:11;;;;;;;7.05;3.35;;;;;;;-10.55;89.33;97868.94;10519542;28;20029;-64
2024/01/15 14:40:18;;;;;;;18.35;8.05;;;;;;;-10.58;89.38;97869.38;10515354;28;20032;-63
2024/01/15 14:45:20;;;;;;;8.32;4.82;;;;;;;-10.62;88.98;97862.84;10494723;28;20045;-63
2024/01/15 14:50:23;;;;;;;13.98;6.63;;;;;;;-10.53;90.09;97861.59;10521120;28;20052;-64
2024/01/15 14:55:25;;;;;;;13.90;6.18;;;;;;;-10.55;89.95;97864.44;10523201;28;20044;-63
2024/01/15 15:00:27;;;;;;;18.67;7.53;;;;;;;-10.55;89.48;97864.44;10505530;28;20040;-63
2024/01/15 15:05:30;;;;;;;5.63;3.53;;;;;;;-10.60;89.23;97850.19;10523925;28;20044;-63
2024/01/15 15:10:33;;;;;;;3.78;3.38;;;;;;;-10.60;89.50;97850.19;10524047;28;20424;-64
2024/01/15 15:15:35;;;;;;;8.77;5.13;;;;;;;-10.58;89.41;97837.59;10504114;28;20051;-65
2024/01/15 15:20:37;;;;;;;11.73;4.50;;;;;;;-10.55;89.71;97853.84;10523466;28;20047;-64
2024/01/15 15:25:42;;;;;;;9.73;4.57;;;;;;;-10.57;89.51;97852.44;10519499;28;20036;-64
2024/01/15 15:30:45;;;;;;;11.30;5.70;;;;;;;-10.50;90.04;97853.19;10522520;28;20561;-64
2024/01/15 15:35:51;;;;;;;5.03;3.92;;;;;;;-10.53;89.78;97849.16;10506687;28;20452;-65
2024/01/15 15:40:55;;;;;;;21.23;7.47;;;;;;;-10.56;89.87;97859.38;10519501;28;20040;-66
2024/01/15 15:45:57;;;;;;;10.32;5.55;;;;;;;-10.63;89.79;97850.63;10499246;28;20044;-63
2024/01/15 15:51:02;;;;;;;18.67;6.20;;;;;;;-10.63;89.68;97855.94;10507270;28;20056;-66
2024/01/15 15:56:04;;;;;;;9.93;4.57;;;;;;;-10.62;90.19;97850.41;10506776;28;20041;-66
2024/01/15 16:01:07;;;;;;;13.23;5.63;;;;;;;-10.61;90.06;97851.22;10491185;28;20041;-67
2024/01/15 16:06:11;;;;;;;15.07;6.45;;;;;;;-10.59;90.29;97844.69;10523477;28;20253;-65
2024/01/15 16:11:13;;;;;;;11.25;6.75;;;;;;;-10.59;89.44;97831.44;10530862;28;20424;-65
2024/01/15 16:16:15;;;;;;;14.73;6.05;;;;;;;-10.54;90.10;97828.16;10531648;28;20040;-64
2024/01/15 16:21:18;;;;;;;11.55;4.65;;;;;;;-10.45;90.13;97821.56;10527269;28;20040;-64
2024/01/15 16:26:20;;;;;;;14.35;6.68;;;;;;;-10.42;89.84;97821.13;10521264;28;20043;-66
2024/01/15 16:31:22;;;;;;;9.63;4.55;;;;;;;-10.46;89.74;97830.53;10529193;28;20029;-64
2024/01/15 16:36:25;;;;;;;26.60;13.23;;;;;;;-10.48;89.76;97827.28;10505402;28;20040;-69
2024/01/15 16:41:27;;;;;;;16.92;7.72;;;;;;;-10.37;89.58;97830.06;10523898;28;20039;-64
2024/01/15 16:46:29;;;;;;;15.23;6.97;;;;;;;-10.35;88.94;97821.91;10520218;28;20053;-66
2024/01/15 16:51:31;;;;;;;15.90;6.30;;;;;;;-10.31;88.96;97823.06;10502403;28;20045;-66
2024/01/15 16:56:35;;;;;;;21.10;8.45;;;;;;;-10.31;89.46;97824.91;10506514;28;20549;-65
2024/01/15 17:01:38;;;;;;;18.08;7.35;;;;;;;-10.27;89.93;97811.00;10524851;28;20038;-66
2024/01/15 17:06:41;;;;;;;19.50;6.88;;;;;;;-10.22;89.31;97810.38;10527643;28;20037;-65
2024/01/15 17:11:43;;;;;;;12.32;6.63;;;;;;;-10.22;89.96;97807.72;10499713;28;20041;-66
2024/01/15 17:16:46;;;;;;;21.10;8.93;;;;;;;-10.35;89.94;97811.28;10526798;28;20036;-66
2024/01/15 17:21:49;;;;;;;15.32;6.93;;;;;;;-10.38;89.50;97806.44;10495821;28;20039;-65
2024/01/15 17:26:51;;;;;;;21.67;8.73;;;;;;;-10.30;90.30;97808.78;10498726;28;20060;-65
2024/01/15 17:31:54;;;;;;;19.98;8.18;;;;;;;-10.37;89.63;97802.75;10512873;28;20033;-64
2024/01/15 17:36:56;;;;;;;30.42;9.38;;;;;;;-10.36;90.15;97802.53;10537503;28;20028;-62
2024/01/15 17:41:58;;;;;;;22.45;9.18;;;;;;;-10.38;89.48;97798.47;10541275;28;20043;-62
2024/01/15 17:47:01;;;;;;;6.20;4.93;;;;;;;-10.49;89.96;97793.88;10514099;28;20048;-65
2024/01/15 17:52:04;;;;;;;16.10;7.05;;;;;;;-10.44;89.59;97788.72;10511402;28;20040;-62
2024/01/15 17:57:06;;;;;;;22.15;9.75;;;;;;;-10.47;90.08;97789.97;10505452;28;20029;-65
2024/01/15 18:02:09;;;;;;;19.20;7.97;;;;;;;-10.47;89.42;97783.88;10513273;28;20052;-64
2024/01/15 18:07:11;;;;;;;21.90;8.52;;;;;;;-10.44;89.94;97786.88;10510774;28;20132;-65
2024/01/15 18:12:13;;;;;;;12.27;5.97;;;;;;;-10.37;89.67;97786.84;10525304;28;20041;-63
2024/01/15 18:17:17;;;;;;;19.40;8.73;;;;;;;-10.36;90.18;97788.47;10522432;28;20416;-64
2024/01/15 18:22:19;;;;;;;21.30;8.77;;;;;;;-10.38;89.98;97780.75;10522737;28;20408;-64
2024/01/15 18:27:22;;;;;;;16.88;7.57;;;;;;;-10.44;90.47;97781.59;10527085;28;20055;-65
2024/01/15 18:32:24;;;;;;;30.23;14.80;;;;;;;-10.50;90.14;97787.75;10510183;28;20047;-66
2024/01/15 18:37:27;;;;;;;27.42;12.65;;;;;;;-10.52;90.30;97783.72;10513641;28;20539;-66
2024/01/15 18:42:31;;;;;;;25.33;12.23;;;;;;;-10.52;90.60;97789.00;10523867;28;20036;-66
2024/01/15 18:47:34;;;;;;;32.50;13.70;;;;;;;-10.56;90.45;97790.47;10523576;28;20052;-63
2024/01/15 18:52:37;;;;;;;31.83;12.88;;;;;;;-10.60;90.34;97776.03;10504158;28;20084;-66
2024/01/15 18:57:41;;;;;;;29.45;11.93;;;;;;;-10.66;90.41;97785.66;10485276;28;20052;-67
2024/01/15 19:02:43;;;;;;;28.40;12.32;;;;;;;-10.62;89.94;97786.03;10523920;28;20066;-64
2024/01/15 19:07:46;;;;;;;26.42;12.13;;;;;;;-10.67;90.59;97782.19;10521294;28;20048;-65
2024/01/15 19:12:48;;;;;;;32.65;12.80;;;;;;;-10.70;89.87;97784.47;10481468;28;20028;-66
2024/01/15 19:17:51;;;;;;;30.20;12.50;;;;;;;-10.70;89.70;97777.31;10519606;28;20055;-65
2024/01/15 19:22:53;;;;;;;27.63;12.57;;;;;;;-10.67;90.28;97781.38;10498854;28;20047;-65
2024/01/15 19:27:55;;;;;;;24.65;11.30;;;;;;;-10.62;90.05;97780.72;10520428;28;20046;-66
2024/01/15 19:32:58;;;;;;;23.55;11.60;;;;;;;-10.61;90.32;97780.50;10499703;28;20033;-66
2024/01/15 19:38:03;;;;;;;24.70;11.13;;;;;;;-10.62;90.41;97773.59;10512971;28;20036;-67
2024/01/15 19:43:06;;;;;;;25.75;11.93;;;;;;;-10.60;90.83;97768.06;10497866;28;20040;-66
2024/01/15 19:48:08;;;;;;;24.25;11.27;;;;;;;-10.67;89.95;97761.00;10446330;28;1979589;-67
2024/01/15 19:53:11;;;;;;;24.80;10.77;;;;;;;-10.67;90.16;97766.28;10513917;28;20040;-65
2024/01/15 19:58:17;;;;;;;20.85;9.80;;;;;;;-10.66;90.53;97769.75;10480498;28;20040;-64
2024/01/15 20:03:20;;;;;;;24.90;10.60;;;;;;;-10.85;90.17;97763.59;10516322;28;20049;-66
2024/01/15 20:08:23;;;;;;;23.63;10.25;;;;;;;-10.80;90.97;97761.09;10520928;28;20052;-66
2024/01/15 20:13:26;;;;;;;24.00;9.63;;;;;;;-10.78;90.54;97772.28;10519041;28;20397;-67
2024/01/15 20:18:28;;;;;;;23.15;11.77;;;;;;;-10.82;90.61;97771.09;10510594;28;20036;-66
2024/01/15 20:23:34;;;;;;;24.83;11.10;;;;;;;-10.75;91.03;97763.13;10522925;28;20036;-66
2024/01/15 20:28:37;;;;;;;22.08;10.35;;;;;;;-10.76;91.03;97767.59;10505770;28;20040;-65
2024/01/15 20:33:49;;;;;;;23.15;11.02;;;;;;;-10.80;90.40;97761.09;10532287;28;20036;-67
2024/01/15 20:38:51;;;;;;;23.23;11.05;;;;;;;-10.78;90.43;97774.13;10522000;28;20040;-66
2024/01/15 20:43:56;;;;;;;24.17;9.32;;;;;;;-10.68;91.32;97769.97;10492547;28;20127;-67
2024/01/15 20:48:58;;;;;;;25.90;10.25;;;;;;;-10.69;90.74;97762.25;10542657;28;20046;-67
2024/01/15 20:54:01;;;;;;;25.08;10.20;;;;;;;-10.77;90.90;97763.31;10534000;28;20083;-68
2024/01/15 20:59:03;;;;;;;22.83;9.52;;;;;;;-10.88;90.98;97764.03;10533861;28;20047;-68
2024/01/15 21:04:06;;;;;;;23.73;10.38;;;;;;;-10.87;91.58;97764.84;10492978;28;20036;-67
2024/01/15 21:09:09;;;;;;;24.17;11.07;;;;;;;-10.96;90.95;97759.78;10534755;28;20037;-67
2024/01/15 21:14:18;;;;;;;25.80;12.00;;;;;;;-10.93;91.62;97768.31;10528033;28;20029;-67
2024/01/15 21:19:21;;;;;;;25.90;10.90;;;;;;;-10.99;91.19;97762.88;10527178;28;20041;-67
2024/01/15 21:24:27;;;;;;;21.85;9.75;;;;;;;-10.98;91.27;97766.31;10524706;28;20048;-66
2024/01/15 21:29:30;;;;;;;24.92;9.07;;;;;;;-11.02;91.23;97767.78;10526914;28;20037;-67
2024/01/15 21:34:32;;;;;;;22.77;10.90;;;;;;;-11.12;91.26;97770.06;10529370;28;20036;-67
2024/01/15 21:39:36;;;;;;;23.58;10.85;;;;;;;-11.10;90.97;97774.16;10534922;28;20546;-66
2024/01/15 21:44:39;;;;;;;21.90;11.07;;;;;;;-11.14;91.69;97770.28;10531732;28;20047;-66
2024/01/15 21:49:42;;;;;;;23.30;10.93;;;;;;;-11.12;91.57;97762.94;10545145;28;20056;-64
2024/01/15 21:54:44;;;;;;;27.27;11.38;;;;;;;-11.14;91.58;97769.47;10519631;28;20036;-66
2024/01/15 21:59:48;;;;;;;22.25;8.88;;;;;;;-11.13;91.54;97765.81;10532891;28;20054;-66
2024/01/15 22:04:51;;;;;;;24.63;11.02;;;;;;;-11.08;91.60;97755.41;10528292;28;20037;-66
2024/01/15 22:09:54;;;;;;;23.10;11.93;;;;;;;-11.12;92.06;97768.22;10537361;28;20047;-65
2024/01/15 22:14:56;;;;;;;24.55;11.50;;;;;;;-11.08;91.58;97752.75;10523350;28;20047;-66
2024/01/15 22:20:00;;;;;;;24.30;11.70;;;;;;;-11.05;91.69;97754.97;10521735;28;20039;-69
2024/01/15 22:25:14;;;;;;;23.08;11.75;;;;;;;-11.04;91.43;97754.75;10493818;28;20519;-66
2024/01/15 22:30:17;;;;;;;23.50;10.90;;;;;;;-11.03;91.25;97753.72;10509052;28;20033;-66
2024/01/15 22:35:19;;;;;;;23.50;10.10;;;;;;;-11.02;91.94;97751.91;10512810;28;20040;-66
2024/01/15 22:40:22;;;;;;;27.60;9.90;;;;;;;-10.92;91.69;97732.91;10525159;28;20040;-66
2024/01/15 22:45:26;;;;;;;18.20;8.40;;;;;;;-10.90;91.37;97741.44;10516765;28;20048;-66
2024/01/15 22:50:28;;;;;;;23.67;11.32;;;;;;;-10.97;91.00;97744.91;10497291;28;20052;-65